Google Maps JavaScript API Example
Pilot Flight Report # 95013 Submitted by : AST195 on 2021-04-10
Date: 2021-04-10Aircraft: Airbus A320-200
Flight No.: AST1053Distance (Nm): 123.49
Departure: KSTL - Lambert-St Louis IntlDestination: KBMI - Central Ill Regl
 TimeFuelWeightSpeeds  
Out (Taxi)1531 Flight RulesIFR
Off (Takeoff)1531 Flight Level
On (Landing)1628 VSTD
In (Ramp)1628 ZFW
Flight0.95  -  0:579671  Pax0
Block0.95  -  0:579671  Cargo0
Departure WeatherKSTL 102051Z 24020G34KT 8SM -RA FEW019 BKN026 BKN050 11/08 A2945 RMK AO2 PK WND 25036/1957 RAE23B40 SLP969 P0000 60000 T01110078 53002 $
Destination WeatherKBMI 102056Z 19013KT 10SM BKN013 OVC029 14/13 A2935 RMK AO2 RAE21 SLP935 P0002 60023 T01440133 56025
Flight CommentsGATE 22